Time;durP1;ratioP1;P1;durP2;ratioP2;P2;SDS_P1;SDS_P2;PMS_P1;PMS_P2;Temp;Humidity;BMP_temperature;BMP_pressure;BME280_temperature;BME280_humidity;BME280_pressure;Samples;Min_cycle;Max_cycle;Signal;HPM_P1;HPM_P2
2023/10/25 00:01:38;;;;;;;;;;;20.20;78.70;;;;;;5033458;28;19982;-62
2023/10/25 00:04:04;;;;;;;;;;;20.10;81.10;;;;;;5033160;28;20016;-62
2023/10/25 00:06:29;;;;;;;;;;;20.10;81.40;;;;;;5033020;28;19982;-61
2023/10/25 00:08:55;;;;;;;;;;;20.20;78.50;;;;;;5033187;28;20437;-61
2023/10/25 00:11:21;;;;;;;;;;;20.30;79.50;;;;;;5033147;28;20005;-61
2023/10/25 00:13:46;;;;;;;;;;;20.30;80.40;;;;;;5033078;28;19982;-64
2023/10/25 00:16:13;;;;;;;;;;;20.40;79.40;;;;;;5033211;28;19989;-63
2023/10/25 00:18:38;;;;;;;;;;;20.40;79.40;;;;;;5032938;28;20467;-61
2023/10/25 00:21:04;;;;;;;;;;;20.40;80.60;;;;;;5032991;28;20076;-63
2023/10/25 00:23:29;;;;;;;;;;;20.40;83.30;;;;;;5032762;28;20017;-60
2023/10/25 00:25:55;;;;;;;;;;;20.20;83.90;;;;;;5033219;28;20463;-63
2023/10/25 00:28:20;;;;;;;;;;;20.10;84.50;;;;;;5033076;28;20499;-61
2023/10/25 00:30:46;;;;;;;;;;;20.20;85.80;;;;;;5032898;28;20389;-62
2023/10/25 00:33:12;;;;;;;;;;;20.10;86.90;;;;;;5032943;28;20488;-65
2023/10/25 00:35:38;;;;;;;;;;;20.00;88.10;;;;;;5032702;28;19994;-64
2023/10/25 00:38:03;;;;;;;;;;;19.90;89.20;;;;;;5032918;28;19982;-62
2023/10/25 00:40:29;;;;;;;;;;;19.70;90.30;;;;;;5032927;28;19989;-63
2023/10/25 00:43:14;;;;;;;;;;;19.60;90.90;;;;;;5036102;28;20375;-63
2023/10/25 00:45:44;;;;;;;;;;;19.60;91.20;;;;;;5036610;28;19982;-65
2023/10/25 00:48:10;;;;;;;;;;;19.50;92.10;;;;;;5036443;28;19983;-61
2023/10/25 00:50:35;;;;;;;;;;;19.40;92.40;;;;;;5036012;28;19993;-61
2023/10/25 00:53:01;;;;;;;;;;;19.30;92.70;;;;;;5036296;28;20081;-62
2023/10/25 00:55:26;;;;;;;;;;;19.30;93.10;;;;;;5036336;28;19993;-63
2023/10/25 00:57:52;;;;;;;;;;;19.30;93.30;;;;;;5036201;28;20036;-60
2023/10/25 01:00:17;;;;;;;;;;;19.30;92.20;;;;;;5036095;28;19986;-64
2023/10/25 01:02:43;;;;;;;;;;;19.40;91.90;;;;;;5036221;28;20009;-62
2023/10/25 01:05:09;;;;;;;;;;;19.50;91.60;;;;;;5035957;28;20379;-64
2023/10/25 01:07:34;;;;;;;;;;;19.50;91.30;;;;;;5035911;28;19982;-61
2023/10/25 01:10:00;;;;;;;;;;;19.60;91.10;;;;;;5035992;28;19993;-63
2023/10/25 01:12:25;;;;;;;;;;;19.60;91.00;;;;;;5036053;28;19982;-62
2023/10/25 01:14:51;;;;;;;;;;;19.50;92.20;;;;;;5035815;28;19987;-60
2023/10/25 01:17:16;;;;;;;;;;;19.40;92.70;;;;;;5035807;28;19990;-61
2023/10/25 01:19:42;;;;;;;;;;;19.40;91.70;;;;;;5035615;28;20067;-60
2023/10/25 01:22:08;;;;;;;;;;;19.40;91.40;;;;;;5035523;28;20009;-62
2023/10/25 01:24:33;;;;;;;;;;;19.50;91.50;;;;;;5035750;28;20005;-63
2023/10/25 01:26:59;;;;;;;;;;;19.50;92.50;;;;;;5035776;28;19989;-61
2023/10/25 01:29:24;;;;;;;;;;;19.40;92.70;;;;;;5035712;28;19990;-60
2023/10/25 01:31:50;;;;;;;;;;;19.50;92.80;;;;;;5035476;28;20006;-60
2023/10/25 01:34:18;;;;;;;;;;;19.60;92.80;;;;;;5035197;28;19992;-62
2023/10/25 01:36:44;;;;;;;;;;;19.60;92.60;;;;;;5035547;28;20024;-60
2023/10/25 01:39:10;;;;;;;;;;;19.60;93.30;;;;;;5035313;28;19982;-64
2023/10/25 01:41:35;;;;;;;;;;;19.60;94.30;;;;;;5035418;28;19989;-59
2023/10/25 01:44:01;;;;;;;;;;;19.50;94.50;;;;;;5035301;28;20052;-60
2023/10/25 01:46:26;;;;;;;;;;;19.50;94.60;;;;;;5035281;28;20093;-61
2023/10/25 01:48:52;;;;;;;;;;;19.50;94.20;;;;;;5034945;28;19993;-65
2023/10/25 01:51:18;;;;;;;;;;;19.50;94.40;;;;;;5035299;28;20028;-64
2023/10/25 01:53:43;;;;;;;;;;;19.60;94.30;;;;;;5034363;28;19982;-62
2023/10/25 01:56:09;;;;;;;;;;;19.60;94.30;;;;;;5035211;28;20512;-63
2023/10/25 01:58:34;;;;;;;;;;;19.60;93.30;;;;;;5035189;28;19989;-62
2023/10/25 02:01:03;;;;;;;;;;;19.60;92.50;;;;;;5035090;28;20475;-64
2023/10/25 02:03:28;;;;;;;;;;;19.60;93.00;;;;;;5034748;28;20033;-63
2023/10/25 02:05:54;;;;;;;;;;;19.60;93.30;;;;;;5035045;28;19982;-62
2023/10/25 02:08:19;;;;;;;;;;;19.60;93.10;;;;;;5034941;28;20460;-65
2023/10/25 02:10:45;;;;;;;;;;;19.50;92.50;;;;;;5034735;28;20391;-63
2023/10/25 02:13:11;;;;;;;;;;;19.60;92.30;;;;;;5034831;28;20408;-62
2023/10/25 02:15:36;;;;;;;;;;;19.70;92.20;;;;;;5035009;28;19990;-61
2023/10/25 02:18:02;;;;;;;;;;;19.70;93.00;;;;;;5034344;28;19996;-62
2023/10/25 02:20:29;;;;;;;;;;;19.60;95.70;;;;;;5034524;28;20495;-64
2023/10/25 02:22:54;;;;;;;;;;;19.50;96.60;;;;;;5034635;28;20444;-64
2023/10/25 02:25:20;;;;;;;;;;;19.50;96.30;;;;;;5034801;28;20024;-61
2023/10/25 02:27:45;;;;;;;;;;;19.50;97.90;;;;;;5034752;28;19986;-63
2023/10/25 02:30:11;;;;;;;;;;;19.60;98.20;;;;;;5034558;28;19982;-64
2023/10/25 02:32:37;;;;;;;;;;;19.50;99.90;;;;;;5034149;28;19986;-60
2023/10/25 02:35:02;;;;;;;;;;;19.40;99.90;;;;;;5034556;28;20009;-61
2023/10/25 02:37:28;;;;;;;;;;;19.20;99.90;;;;;;5034364;28;20077;-62
2023/10/25 02:39:53;;;;;;;;;;;19.10;99.90;;;;;;5016635;28;20090;-62
2023/10/25 02:42:19;;;;;;;;;;;18.80;99.90;;;;;;5034094;28;20072;-61
2023/10/25 02:44:45;;;;;;;;;;;18.80;99.90;;;;;;5034438;28;19982;-60
2023/10/25 02:47:11;;;;;;;;;;;18.80;99.90;;;;;;5034052;28;19986;-63
2023/10/25 02:49:36;;;;;;;;;;;18.90;99.90;;;;;;5034033;28;20337;-60
2023/10/25 02:52:02;;;;;;;;;;;18.90;99.90;;;;;;5034115;28;20037;-63
2023/10/25 02:54:27;;;;;;;;;;;18.90;99.90;;;;;;5034165;28;19986;-62
2023/10/25 02:56:53;;;;;;;;;;;18.90;99.90;;;;;;5033932;28;19982;-61
2023/10/25 02:59:18;;;;;;;;;;;18.90;99.90;;;;;;5034032;28;20494;-61
2023/10/25 03:01:44;;;;;;;;;;;19.00;99.90;;;;;;5033762;28;20464;-60
2023/10/25 03:04:10;;;;;;;;;;;19.10;99.90;;;;;;5033709;28;20010;-60
2023/10/25 03:06:35;;;;;;;;;;;19.10;99.90;;;;;;5033819;28;19982;-63
2023/10/25 03:09:01;;;;;;;;;;;19.10;99.90;;;;;;5033854;28;19988;-63
2023/10/25 03:11:26;;;;;;;;;;;19.20;99.90;;;;;;5034092;28;19990;-60
2023/10/25 03:13:52;;;;;;;;;;;19.20;99.90;;;;;;5033736;28;20025;-62
2023/10/25 03:16:17;;;;;;;;;;;19.00;99.90;;;;;;5033651;28;19986;-61
2023/10/25 03:18:43;;;;;;;;;;;18.90;99.90;;;;;;5033760;28;20437;-63
2023/10/25 03:21:08;;;;;;;;;;;18.90;99.90;;;;;;5033642;28;20376;-62
2023/10/25 03:23:34;;;;;;;;;;;18.90;99.90;;;;;;5033629;28;20067;-63
2023/10/25 03:26:06;;;;;;;;;;;18.90;99.90;;;;;;5033508;28;20479;-61
2023/10/25 03:28:32;;;;;;;;;;;18.90;99.90;;;;;;5033546;28;20005;-60
2023/10/25 03:31:03;;;;;;;;;;;18.80;99.90;;;;;;5033338;28;20456;-62
2023/10/25 03:33:28;;;;;;;;;;;18.90;99.90;;;;;;5033693;28;19982;-63
2023/10/25 03:35:54;;;;;;;;;;;18.70;99.90;;;;;;5033471;28;19983;-62
2023/10/25 03:38:19;;;;;;;;;;;18.60;99.90;;;;;;5033477;28;20406;-62
2023/10/25 03:40:46;;;;;;;;;;;18.60;99.90;;;;;;5033431;28;19983;-63
2023/10/25 03:43:11;;;;;;;;;;;18.60;99.90;;;;;;5033439;28;20038;-63
2023/10/25 03:45:37;;;;;;;;;;;18.60;99.90;;;;;;5033432;28;20415;-63
2023/10/25 03:48:03;;;;;;;;;;;18.60;99.90;;;;;;5033457;28;19990;-64
2023/10/25 03:50:28;;;;;;;;;;;18.50;99.90;;;;;;5033469;28;20402;-58
2023/10/25 03:52:55;;;;;;;;;;;18.50;99.90;;;;;;5033244;28;19986;-59
2023/10/25 03:55:20;;;;;;;;;;;18.40;99.90;;;;;;5033348;28;20558;-62
2023/10/25 03:57:47;;;;;;;;;;;18.40;99.90;;;;;;5033533;28;20017;-61
2023/10/25 04:00:12;;;;;;;;;;;18.30;99.90;;;;;;5033303;28;19990;-61
2023/10/25 04:02:38;;;;;;;;;;;18.30;99.90;;;;;;5033405;28;20457;-61
2023/10/25 04:05:04;;;;;;;;;;;18.30;99.90;;;;;;5033311;28;20005;-63
2023/10/25 04:07:29;;;;;;;;;;;18.30;99.90;;;;;;5033104;28;20355;-60
2023/10/25 04:09:55;;;;;;;;;;;18.20;99.90;;;;;;5033414;28;19986;-62
2023/10/25 04:12:20;;;;;;;;;;;18.20;99.90;;;;;;5033207;28;19982;-63
2023/10/25 04:14:46;;;;;;;;;;;18.10;99.90;;;;;;5032979;28;19982;-61
2023/10/25 04:17:12;;;;;;;;;;;18.10;99.90;;;;;;5035420;28;19982;-63
2023/10/25 04:19:38;;;;;;;;;;;18.00;99.90;;;;;;5036889;28;20488;-62
2023/10/25 04:22:04;;;;;;;;;;;17.80;99.90;;;;;;5036881;28;20445;-59
2023/10/25 04:24:30;;;;;;;;;;;17.70;99.90;;;;;;5036696;28;20128;-65
2023/10/25 04:26:55;;;;;;;;;;;17.60;99.90;;;;;;5036843;28;20021;-63
2023/10/25 04:29:21;;;;;;;;;;;17.60;99.90;;;;;;5036833;28;20432;-61
2023/10/25 04:31:46;;;;;;;;;;;17.50;99.90;;;;;;5036918;28;20367;-64
2023/10/25 04:34:12;;;;;;;;;;;17.50;99.90;;;;;;5036921;28;20389;-62
2023/10/25 04:36:38;;;;;;;;;;;17.50;99.90;;;;;;5036976;28;19989;-63
2023/10/25 04:39:04;;;;;;;;;;;17.40;99.90;;;;;;5036553;28;20032;-62
2023/10/25 04:41:30;;;;;;;;;;;17.40;99.90;;;;;;5036753;28;20399;-62
2023/10/25 04:43:56;;;;;;;;;;;17.40;99.90;;;;;;5036527;28;20010;-63
2023/10/25 04:46:22;;;;;;;;;;;17.20;99.90;;;;;;5036275;28;19986;-63
2023/10/25 04:48:47;;;;;;;;;;;17.20;99.90;;;;;;5036362;28;19986;-64
2023/10/25 04:51:13;;;;;;;;;;;17.30;99.90;;;;;;5036484;28;19982;-63
2023/10/25 04:53:39;;;;;;;;;;;17.30;99.90;;;;;;5036247;28;20478;-62
2023/10/25 04:56:06;;;;;;;;;;;17.30;99.90;;;;;;5036682;28;20017;-61
2023/10/25 04:58:31;;;;;;;;;;;17.40;99.90;;;;;;5036270;28;20080;-60
2023/10/25 05:00:57;;;;;;;;;;;17.40;99.90;;;;;;5036213;28;20404;-63
2023/10/25 05:03:22;;;;;;;;;;;17.30;99.90;;;;;;5035963;28;20068;-61
2023/10/25 05:05:49;;;;;;;;;;;17.30;99.90;;;;;;5036006;28;19985;-64
2023/10/25 05:08:14;;;;;;;;;;;17.40;99.90;;;;;;5036117;28;19982;-61
2023/10/25 05:10:40;;;;;;;;;;;17.40;99.90;;;;;;5035930;28;20551;-62
2023/10/25 05:13:06;;;;;;;;;;;17.40;99.90;;;;;;5035592;28;19982;-59
2023/10/25 05:15:35;;;;;;;;;;;17.40;99.90;;;;;;5035941;28;20009;-65
2023/10/25 05:18:00;;;;;;;;;;;17.40;99.90;;;;;;5035773;28;19990;-62
2023/10/25 05:20:26;;;;;;;;;;;17.30;99.90;;;;;;5034920;28;20025;-61
2023/10/25 05:22:52;;;;;;;;;;;17.30;99.90;;;;;;5035725;28;20456;-63
2023/10/25 05:25:18;;;;;;;;;;;17.30;99.90;;;;;;5035758;28;20016;-65
2023/10/25 05:27:44;;;;;;;;;;;17.30;99.90;;;;;;5034357;28;19986;-62
2023/10/25 05:30:12;;;;;;;;;;;17.40;99.90;;;;;;5035439;28;19993;-60
2023/10/25 05:32:43;;;;;;;;;;;17.30;99.90;;;;;;5035419;28;19994;-63
2023/10/25 05:35:09;;;;;;;;;;;17.30;99.90;;;;;;5035463;28;19982;-63
2023/10/25 05:37:35;;;;;;;;;;;17.20;99.90;;;;;;5035635;28;20332;-62
2023/10/25 05:40:01;;;;;;;;;;;17.20;99.90;;;;;;5035200;28;20449;-62
2023/10/25 05:42:27;;;;;;;;;;;17.30;99.90;;;;;;5035555;28;20413;-64
2023/10/25 05:44:56;;;;;;;;;;;17.30;99.90;;;;;;5035285;28;20083;-60
2023/10/25 05:47:22;;;;;;;;;;;17.30;99.90;;;;;;5035239;28;19990;-67
2023/10/25 05:49:48;;;;;;;;;;;17.40;99.90;;;;;;5033328;28;19994;-63
2023/10/25 05:52:14;;;;;;;;;;;17.30;99.90;;;;;;5035184;28;20325;-62
2023/10/25 05:54:40;;;;;;;;;;;17.20;99.90;;;;;;5034849;28;19983;-63
2023/10/25 05:57:06;;;;;;;;;;;17.20;99.90;;;;;;5034555;28;20033;-62
2023/10/25 05:59:32;;;;;;;;;;;17.30;99.90;;;;;;5034425;28;19987;-60
2023/10/25 06:02:30;;;;;;;;;;;17.40;99.90;;;;;;5033504;28;20440;-63
2023/10/25 06:04:56;;;;;;;;;;;17.50;99.90;;;;;;5034644;28;19990;-61
2023/10/25 06:07:22;;;;;;;;;;;17.50;99.90;;;;;;5025317;28;19983;-62
2023/10/25 06:09:48;;;;;;;;;;;17.60;99.90;;;;;;5011549;28;19987;-62
2023/10/25 06:12:14;;;;;;;;;;;17.60;99.90;;;;;;5012914;28;19986;-65
2023/10/25 06:14:39;;;;;;;;;;;17.60;99.90;;;;;;5012332;28;19982;-65
2023/10/25 06:17:05;;;;;;;;;;;17.70;99.90;;;;;;5012861;28;20459;-62
2023/10/25 06:19:30;;;;;;;;;;;17.50;99.90;;;;;;5013315;28;20022;-62
2023/10/25 06:21:56;;;;;;;;;;;17.50;99.90;;;;;;5013190;28;20356;-64
2023/10/25 06:24:23;;;;;;;;;;;17.70;99.90;;;;;;5014454;28;20037;-62
2023/10/25 06:26:48;;;;;;;;;;;17.70;99.90;;;;;;5015131;28;20436;-65
2023/10/25 06:29:14;;;;;;;;;;;17.70;99.90;;;;;;5014216;28;19986;-65
2023/10/25 06:31:40;;;;;;;;;;;17.70;99.90;;;;;;5032431;28;19986;-63
2023/10/25 06:34:05;;;;;;;;;;;17.80;99.90;;;;;;5032628;28;20437;-66
2023/10/25 06:36:31;;;;;;;;;;;17.80;99.90;;;;;;5032463;28;19986;-60
2023/10/25 06:38:57;;;;;;;;;;;17.80;99.90;;;;;;5032411;28;19993;-64
2023/10/25 06:41:23;;;;;;;;;;;17.60;99.90;;;;;;5033341;28;19982;-63
2023/10/25 06:43:49;;;;;;;;;;;17.50;99.90;;;;;;5034068;28;20052;-62
2023/10/25 06:46:15;;;;;;;;;;;17.30;99.90;;;;;;5033953;28;20036;-68
2023/10/25 06:48:41;;;;;;;;;;;17.20;99.90;;;;;;5034215;28;19986;-64
2023/10/25 06:51:07;;;;;;;;;;;17.30;99.90;;;;;;5011993;28;20101;-65
2023/10/25 06:53:33;;;;;;;;;;;17.40;99.90;;;;;;5033422;28;19982;-65
2023/10/25 06:55:59;;;;;;;;;;;17.50;99.90;;;;;;5032994;28;20524;-61
2023/10/25 06:58:25;;;;;;;;;;;17.60;99.90;;;;;;5032313;28;19998;-61
2023/10/25 07:00:50;;;;;;;;;;;17.80;99.90;;;;;;5031076;28;20340;-62
2023/10/25 07:03:17;;;;;;;;;;;18.20;99.90;;;;;;5032754;28;20422;-61
2023/10/25 07:05:44;;;;;;;;;;;21.50;99.90;;;;;;5032767;28;20032;-59
2023/10/25 07:08:10;;;;;;;;;;;22.10;95.00;;;;;;5033288;28;19997;-63
2023/10/25 07:10:36;;;;;;;;;;;22.90;95.40;;;;;;5033161;28;19983;-61
2023/10/25 07:13:01;;;;;;;;;;;25.80;74.30;;;;;;5032593;28;20071;-61
2023/10/25 07:15:27;;;;;;;;;;;28.20;60.00;;;;;;5032132;28;20013;-60
2023/10/25 07:17:52;;;;;;;;;;;29.80;53.60;;;;;;5032336;28;19990;-63
2023/10/25 07:20:18;;;;;;;;;;;31.40;46.60;;;;;;5031245;28;20017;-61
2023/10/25 07:22:44;;;;;;;;;;;32.20;44.50;;;;;;5032760;28;20010;-61
2023/10/25 07:25:09;;;;;;;;;;;32.80;42.70;;;;;;5032239;28;20079;-61
2023/10/25 07:27:37;;;;;;;;;;;32.70;41.40;;;;;;5032284;28;19994;-62
2023/10/25 07:30:03;;;;;;;;;;;32.20;41.60;;;;;;5032280;28;19992;-63
2023/10/25 07:32:30;;;;;;;;;;;31.60;42.80;;;;;;5014624;28;20499;-61
2023/10/25 07:34:56;;;;;;;;;;;32.10;41.50;;;;;;5032782;28;20445;-60
2023/10/25 07:37:21;;;;;;;;;;;32.60;40.30;;;;;;5033134;28;20025;-64
2023/10/25 07:39:48;;;;;;;;;;;32.40;40.80;;;;;;5032073;28;20330;-64
2023/10/25 07:42:14;;;;;;;;;;;32.10;41.70;;;;;;5012868;28;20068;-62
2023/10/25 07:44:40;;;;;;;;;;;31.90;41.50;;;;;;5001787;28;20511;-64
2023/10/25 07:47:05;;;;;;;;;;;31.30;42.20;;;;;;4993944;28;20037;-65
2023/10/25 07:49:40;;;;;;;;;;;30.90;42.70;;;;;;5018305;28;20057;-66
2023/10/25 07:52:05;;;;;;;;;;;30.70;43.00;;;;;;5033242;28;19996;-64
2023/10/25 07:54:31;;;;;;;;;;;29.40;45.30;;;;;;5034240;28;19986;-62
2023/10/25 07:56:57;;;;;;;;;;;27.60;48.80;;;;;;5034496;28;19986;-68
2023/10/25 07:59:23;;;;;;;;;;;26.60;51.10;;;;;;5033056;28;19993;-64
2023/10/25 08:01:49;;;;;;;;;;;26.40;51.80;;;;;;5033904;28;19998;-64
2023/10/25 08:04:15;;;;;;;;;;;25.90;53.40;;;;;;5015280;28;20017;-65
2023/10/25 08:06:41;;;;;;;;;;;26.30;52.80;;;;;;5033792;28;19982;-66
2023/10/25 08:09:07;;;;;;;;;;;27.00;47.80;;;;;;5034462;28;19993;-61
2023/10/25 08:11:36;;;;;;;;;;;27.30;47.60;;;;;;5035905;28;19989;-64
2023/10/25 08:14:02;;;;;;;;;;;27.30;44.60;;;;;;5036142;28;19986;-61
2023/10/25 08:16:28;;;;;;;;;;;27.70;43.30;;;;;;5036292;28;20464;-61
2023/10/25 08:18:54;;;;;;;;;;;28.00;43.40;;;;;;5036622;28;20065;-61
2023/10/25 08:21:19;;;;;;;;;;;28.70;43.00;;;;;;5036611;28;20482;-62
2023/10/25 08:23:45;;;;;;;;;;;30.10;40.90;;;;;;5036340;28;20021;-61
2023/10/25 08:26:11;;;;;;;;;;;30.60;39.30;;;;;;5036152;28;20567;-60
2023/10/25 08:28:37;;;;;;;;;;;30.50;38.60;;;;;;5036420;28;19990;-63
2023/10/25 08:31:12;;;;;;;;;;;31.40;37.90;;;;;;5036231;28;20518;-63
2023/10/25 08:33:38;;;;;;;;;;;32.20;37.20;;;;;;5016336;28;20403;-61
2023/10/25 08:36:04;;;;;;;;;;;32.20;32.90;;;;;;5035258;28;20069;-62
2023/10/25 08:38:29;;;;;;;;;;;32.10;35.00;;;;;;5034312;28;20022;-64
2023/10/25 08:41:04;;;;;;;;;;;32.90;34.90;;;;;;5032670;28;19990;-63
2023/10/25 08:43:33;;;;;;;;;;;33.10;32.20;;;;;;5032759;28;20010;-62
2023/10/25 08:46:03;;;;;;;;;;;32.20;33.60;;;;;;5025813;28;20198;-63
2023/10/25 08:48:28;;;;;;;;;;;32.00;33.70;;;;;;5028025;28;19986;-62
2023/10/25 08:50:55;;;;;;;;;;;32.10;33.20;;;;;;5029542;28;20037;-63
2023/10/25 08:53:23;;;;;;;;;;;32.00;32.60;;;;;;5028840;28;20073;-63
2023/10/25 08:55:52;;;;;;;;;;;31.70;32.50;;;;;;5029217;28;20364;-62
2023/10/25 08:58:19;;;;;;;;;;;30.90;32.70;;;;;;5017090;28;19986;-66
2023/10/25 09:00:44;;;;;;;;;;;30.40;33.60;;;;;;5034942;28;20061;-63
2023/10/25 09:03:29;;;;;;;;;;;30.40;33.30;;;;;;5034171;28;20037;-65
2023/10/25 09:05:54;;;;;;;;;;;30.20;33.90;;;;;;5034307;28;20036;-65
2023/10/25 09:08:20;;;;;;;;;;;30.00;33.20;;;;;;5034157;28;19986;-65
2023/10/25 09:10:53;;;;;;;;;;;29.60;34.40;;;;;;4999141;28;20006;-66
2023/10/25 09:13:18;;;;;;;;;;;29.30;35.00;;;;;;5030142;28;19986;-64
2023/10/25 09:15:44;;;;;;;;;;;29.30;35.30;;;;;;5027281;28;19997;-65
2023/10/25 09:18:10;;;;;;;;;;;29.50;35.10;;;;;;5034151;28;19990;-61
2023/10/25 09:20:36;;;;;;;;;;;29.40;34.80;;;;;;5034415;28;20018;-68
2023/10/25 09:23:11;;;;;;;;;;;29.50;35.00;;;;;;5033775;28;20021;-63
2023/10/25 09:25:37;;;;;;;;;;;29.90;34.40;;;;;;5030680;28;20152;-65
2023/10/25 09:28:32;;;;;;;;;;;30.10;32.90;;;;;;5034413;28;20473;-60
2023/10/25 09:30:59;;;;;;;;;;;30.20;34.50;;;;;;5030634;28;20010;-64
2023/10/25 09:33:27;;;;;;;;;;;30.30;32.80;;;;;;5031715;28;20072;-65
2023/10/25 09:35:53;;;;;;;;;;;30.40;32.10;;;;;;5010443;28;19990;-62
2023/10/25 09:38:18;;;;;;;;;;;30.50;32.20;;;;;;5032168;28;20016;-62
2023/10/25 09:40:47;;;;;;;;;;;30.40;32.90;;;;;;5030513;28;20087;-61
2023/10/25 09:43:19;;;;;;;;;;;30.40;32.60;;;;;;5029240;28;20010;-65
2023/10/25 09:45:50;;;;;;;;;;;30.50;31.40;;;;;;5029394;28;20036;-62
2023/10/25 09:48:18;;;;;;;;;;;30.60;32.20;;;;;;5029990;28;20079;-64
2023/10/25 09:50:45;;;;;;;;;;;30.80;31.40;;;;;;5029426;28;19986;-64
2023/10/25 09:53:17;;;;;;;;;;;30.90;31.90;;;;;;5030816;28;20069;-62
2023/10/25 09:55:45;;;;;;;;;;;30.60;32.50;;;;;;5031876;28;20349;-64
2023/10/25 09:58:11;;;;;;;;;;;30.30;31.70;;;;;;5031872;28;19988;-65
2023/10/25 10:00:37;;;;;;;;;;;30.10;33.40;;;;;;5033122;28;19986;-62
2023/10/25 10:03:05;;;;;;;;;;;30.20;32.90;;;;;;5034075;28;20005;-64
2023/10/25 10:05:41;;;;;;;;;;;30.20;31.20;;;;;;5032459;28;19987;-61
2023/10/25 10:08:18;;;;;;;;;;;30.00;31.70;;;;;;5026518;28;20045;-63
2023/10/25 10:10:52;;;;;;;;;;;29.80;31.90;;;;;;5034627;28;20093;-62
2023/10/25 10:13:19;;;;;;;;;;;29.60;32.70;;;;;;5032853;28;20001;-63
2023/10/25 10:15:56;;;;;;;;;;;29.10;33.20;;;;;;5029549;28;19993;-61
2023/10/25 10:18:22;;;;;;;;;;;28.80;33.50;;;;;;5016202;28;19998;-66
2023/10/25 10:20:57;;;;;;;;;;;28.70;34.40;;;;;;5022377;28;20026;-62
2023/10/25 10:29:32;;;;;;;;;;;28.70;33.50;;;;;;5031361;28;20430;-62
2023/10/25 10:31:58;;;;;;;;;;;28.50;34.00;;;;;;5032679;28;19997;-63
2023/10/25 10:34:36;;;;;;;;;;;28.10;35.10;;;;;;5031253;28;20044;-62
2023/10/25 10:37:08;;;;;;;;;;;28.50;36.70;;;;;;5032794;28;20527;-62
2023/10/25 10:39:36;;;;;;;;;;;28.80;33.80;;;;;;5028760;28;19987;-65
2023/10/25 10:42:01;;;;;;;;;;;29.30;33.30;;;;;;5030805;28;20044;-64
2023/10/25 10:44:28;;;;;;;;;;;29.50;32.70;;;;;;5029328;28;20049;-64
2023/10/25 10:46:55;;;;;;;;;;;29.80;31.90;;;;;;5029750;28;20045;-61
2023/10/25 10:49:22;;;;;;;;;;;30.10;31.80;;;;;;5030863;28;20001;-61
2023/10/25 10:51:48;;;;;;;;;;;29.80;31.50;;;;;;5007157;28;20507;-62
2023/10/25 10:54:13;;;;;;;;;;;29.90;31.70;;;;;;5026916;28;20017;-62
2023/10/25 10:56:39;;;;;;;;;;;29.90;33.80;;;;;;5028368;28;20021;-65
2023/10/25 10:59:06;;;;;;;;;;;30.20;32.40;;;;;;5029307;28;20502;-63
2023/10/25 11:01:32;;;;;;;;;;;30.40;31.70;;;;;;5029944;28;20040;-63
2023/10/25 11:03:58;;;;;;;;;;;30.40;31.60;;;;;;5027998;28;20376;-61
2023/10/25 11:06:24;;;;;;;;;;;30.50;31.60;;;;;;5030841;28;20044;-61
2023/10/25 11:08:50;;;;;;;;;;;30.30;31.40;;;;;;5028965;28;20117;-62
2023/10/25 11:11:20;;;;;;;;;;;30.10;31.40;;;;;;5022572;28;20676;-61
2023/10/25 11:13:46;;;;;;;;;;;30.30;32.60;;;;;;5009389;28;20040;-65
2023/10/25 11:16:12;;;;;;;;;;;30.10;31.20;;;;;;5029476;28;19994;-66
2023/10/25 11:18:38;;;;;;;;;;;30.20;33.10;;;;;;5024013;28;19990;-61
2023/10/25 11:21:03;;;;;;;;;;;30.00;31.20;;;;;;5021663;28;20029;-65
2023/10/25 11:23:29;;;;;;;;;;;29.80;32.20;;;;;;5029733;28;20033;-64
2023/10/25 11:25:56;;;;;;;;;;;29.70;32.20;;;;;;5022531;28;20274;-64
2023/10/25 11:28:22;;;;;;;;;;;29.60;32.10;;;;;;5009414;28;19996;-65
2023/10/25 11:30:49;;;;;;;;;;;29.60;32.70;;;;;;5022618;28;20002;-62
2023/10/25 11:33:15;;;;;;;;;;;30.00;33.60;;;;;;5030106;28;20044;-62
2023/10/25 11:35:43;;;;;;;;;;;30.40;33.00;;;;;;5028921;28;19994;-62
2023/10/25 11:38:09;;;;;;;;;;;30.60;34.00;;;;;;5027083;28;20405;-62
2023/10/25 11:40:39;;;;;;;;;;;31.00;32.60;;;;;;5015266;28;19986;-62
2023/10/25 11:43:05;;;;;;;;;;;31.10;31.20;;;;;;5010864;28;20014;-64
2023/10/25 11:45:31;;;;;;;;;;;31.00;30.90;;;;;;5011359;28;19982;-59
2023/10/25 11:47:56;;;;;;;;;;;30.80;32.00;;;;;;4995748;28;19987;-60
2023/10/25 11:50:23;;;;;;;;;;;30.90;33.30;;;;;;5013781;28;19983;-61
2023/10/25 11:52:48;;;;;;;;;;;31.10;32.50;;;;;;5032605;28;20018;-64
2023/10/25 11:55:14;;;;;;;;;;;31.10;30.60;;;;;;5033136;28;20036;-67
2023/10/25 11:57:40;;;;;;;;;;;31.10;32.90;;;;;;5031117;28;20675;-65
2023/10/25 12:00:08;;;;;;;;;;;31.30;31.50;;;;;;5031023;28;19986;-63
2023/10/25 12:02:34;;;;;;;;;;;31.30;31.00;;;;;;5031560;28;19990;-62
2023/10/25 12:05:01;;;;;;;;;;;31.40;31.90;;;;;;5031850;28;20352;-62
2023/10/25 12:07:27;;;;;;;;;;;31.50;31.70;;;;;;5030253;28;19993;-64
2023/10/25 12:09:53;;;;;;;;;;;31.60;32.50;;;;;;5032797;28;19982;-64
2023/10/25 12:12:19;;;;;;;;;;;31.90;30.90;;;;;;5031847;28;19993;-66
2023/10/25 12:14:45;;;;;;;;;;;32.10;31.10;;;;;;5032987;28;19982;-63
2023/10/25 12:17:10;;;;;;;;;;;32.10;31.70;;;;;;5033405;28;20005;-64
2023/10/25 12:19:36;;;;;;;;;;;32.10;32.20;;;;;;5033313;28;19982;-62
2023/10/25 12:22:07;;;;;;;;;;;32.00;30.10;;;;;;5031897;28;20018;-65
2023/10/25 12:24:33;;;;;;;;;;;31.60;30.80;;;;;;5032058;28;20093;-65
2023/10/25 12:26:59;;;;;;;;;;;31.50;32.20;;;;;;5032211;28;20022;-65
2023/10/25 12:29:25;;;;;;;;;;;31.30;32.10;;;;;;5032345;28;20073;-62
2023/10/25 12:31:50;;;;;;;;;;;31.10;31.00;;;;;;5032685;28;20045;-65
2023/10/25 12:34:16;;;;;;;;;;;30.80;31.60;;;;;;5032454;28;19982;-66
2023/10/25 12:36:42;;;;;;;;;;;30.50;32.80;;;;;;5032599;28;20033;-60
2023/10/25 12:39:07;;;;;;;;;;;30.50;34.60;;;;;;5036217;28;19990;-66
2023/10/25 12:41:33;;;;;;;;;;;30.50;33.00;;;;;;5036472;28;20352;-63
2023/10/25 12:43:59;;;;;;;;;;;30.20;32.70;;;;;;5036415;28;20060;-63
2023/10/25 12:46:24;;;;;;;;;;;30.20;33.50;;;;;;5036340;28;19993;-65
2023/10/25 12:48:50;;;;;;;;;;;30.20;34.00;;;;;;5036492;28;19983;-60
2023/10/25 12:51:16;;;;;;;;;;;30.40;34.40;;;;;;5036337;28;19986;-63
2023/10/25 12:53:41;;;;;;;;;;;30.40;34.30;;;;;;5036352;28;20026;-61
2023/10/25 12:56:07;;;;;;;;;;;30.20;34.80;;;;;;5036225;28;19993;-66
2023/10/25 12:58:33;;;;;;;;;;;29.80;34.10;;;;;;5036207;28;19986;-61
2023/10/25 13:00:59;;;;;;;;;;;29.50;35.10;;;;;;5036238;28;19982;-62
2023/10/25 13:03:25;;;;;;;;;;;29.40;36.30;;;;;;5036401;28;20055;-65
2023/10/25 13:05:51;;;;;;;;;;;29.40;36.40;;;;;;5036269;28;20072;-60
2023/10/25 13:08:16;;;;;;;;;;;29.20;36.30;;;;;;5036387;28;20069;-61
2023/10/25 13:10:42;;;;;;;;;;;29.10;36.60;;;;;;5035756;28;20072;-63
2023/10/25 13:13:07;;;;;;;;;;;28.80;36.60;;;;;;5036300;28;19997;-61
2023/10/25 13:15:33;;;;;;;;;;;28.90;37.20;;;;;;5035878;28;20033;-63
2023/10/25 13:17:59;;;;;;;;;;;29.00;36.40;;;;;;5035916;28;19981;-65
2023/10/25 13:20:24;;;;;;;;;;;29.10;36.00;;;;;;5035925;28;20018;-64
2023/10/25 13:22:50;;;;;;;;;;;29.20;37.70;;;;;;5035956;28;20432;-62
2023/10/25 13:25:15;;;;;;;;;;;29.20;35.60;;;;;;5035700;28;20425;-63
2023/10/25 13:27:41;;;;;;;;;;;29.30;36.50;;;;;;5035772;28;20385;-64
2023/10/25 13:30:07;;;;;;;;;;;29.40;35.80;;;;;;5035254;28;19990;-67
2023/10/25 13:32:32;;;;;;;;;;;29.50;37.90;;;;;;5033879;28;20041;-64
2023/10/25 13:34:58;;;;;;;;;;;29.50;37.20;;;;;;5034051;28;20036;-62
2023/10/25 13:37:24;;;;;;;;;;;29.50;38.30;;;;;;5034964;28;20433;-63
2023/10/25 13:39:50;;;;;;;;;;;29.60;36.50;;;;;;5033959;28;20085;-65
2023/10/25 13:42:16;;;;;;;;;;;29.90;36.40;;;;;;5033900;28;20040;-62
2023/10/25 13:44:42;;;;;;;;;;;30.00;37.00;;;;;;5015763;28;20017;-63
2023/10/25 13:47:09;;;;;;;;;;;29.60;37.50;;;;;;5033674;28;19994;-64
2023/10/25 13:49:34;;;;;;;;;;;29.50;37.20;;;;;;5033003;28;20335;-63
2023/10/25 13:52:00;;;;;;;;;;;29.60;36.60;;;;;;5034345;28;19993;-62
2023/10/25 13:54:27;;;;;;;;;;;29.30;37.80;;;;;;5034499;28;19982;-64
2023/10/25 13:56:52;;;;;;;;;;;29.20;37.40;;;;;;5034796;28;20069;-63
2023/10/25 13:59:18;;;;;;;;;;;29.30;37.60;;;;;;5035211;28;20027;-63
2023/10/25 14:01:43;;;;;;;;;;;29.30;37.20;;;;;;5035156;28;19993;-61
2023/10/25 14:04:12;;;;;;;;;;;29.30;37.80;;;;;;5035135;28;20164;-63
2023/10/25 14:06:38;;;;;;;;;;;29.20;38.50;;;;;;5035158;28;19986;-63
2023/10/25 14:09:04;;;;;;;;;;;29.10;38.70;;;;;;5034787;28;19993;-62
2023/10/25 14:11:29;;;;;;;;;;;28.80;40.40;;;;;;5034393;28;19989;-63
2023/10/25 14:13:56;;;;;;;;;;;28.60;42.50;;;;;;5034808;28;19986;-62
2023/10/25 14:16:21;;;;;;;;;;;28.20;43.70;;;;;;5034898;28;20006;-62
2023/10/25 14:18:47;;;;;;;;;;;27.70;42.30;;;;;;5034860;28;20102;-60